Island Princess — ZCDG4 — position and weather

sailwx.info

Track history (hours):
 
Tides and Currents Weather Stations Pressure Air Temp Water Temp Dewpoint Dewpoint Depression Visibility Wind Speed Wind Dir Waves Ship Positions

Island Princess

Operator: Princess Cruises

Last reported at 2017-Jul-20 21:00 UTC. Time now 2017-Jul-21 02:29 UTC.
Position N 51°36' W 129°24'.

Type: Ship. MMSI: 310384000.

Wind from 200 at 6 knots

Barometer 1018.2 mb
Air temperature 15.5 ° C
Visibility: greater than 10.8 NM
Dewpoint 10.8 ° C
Water temperature 17.0 ° C

Date/timePositionNaut miles runAvg speedWind from/ knotsBaromVisibWave heightAir tempDewpointWater temp
2017-Jul-20 21:00N 51°36' W 129°24'544.6 200 / 61018.210.8 15.510.817.0
2017-Jul-20 20:53N 51°39' W 129°19'815.7
2017-Jul-20 20:23N 51°35' W 129°08'715.0
2017-Jul-20 19:56N 51°31' W 128°59'715.8
2017-Jul-20 19:30N 51°27' W 128°51'815.8
2017-Jul-20 19:01N 51°22' W 128°40'816.0
2017-Jul-20 18:30N 51°17' W 128°30'815.7
2017-Jul-20 18:01N 51°13' W 128°20'289.2
2017-Jul-20 18:00N 51°12' W 128°18'612.7 260 / 101018.210.8 15.011.317.0
2017-Jul-20 17:31N 51°09' W 128°10'816.0
2017-Jul-20 17:00N 51°04' W 127°59'714.9
2017-Jul-20 16:30N 51°00' W 127°49'612.7
2017-Jul-20 16:00N 50°56' W 127°42'714.3
2017-Jul-20 15:30N 50°52' W 127°33'713.9
2017-Jul-20 15:00N 50°49' W 127°23'1716.7
2017-Jul-20 14:00N 50°42' W 126°58'2691.2
2017-Jul-20 14:00N 50°42' W 126°54'611.8 250 / 81020.4 2.2 12.511.613.0
2017-Jul-20 13:30N 50°38' W 126°47'815.1
2017-Jul-20 12:58N 50°32' W 126°40'918.6
2017-Jul-20 12:29N 50°30' W 126°26'918.5
2017-Jul-20 12:00N 50°29' W 126°12'2018.6
2017-Jul-20 10:57N 50°22' W 125°43'1017.6
2017-Jul-20 10:21N 50°20' W 125°27'514.2
2017-Jul-20 10:00N 50°16' W 125°24'51845.1
2017-Jul-20 10:00N 50°12' W 125°18'4 9.0 340 / 171014.810.8 13.011.114.0
2017-Jul-20 09:31N 50°08' W 125°21'5 9.3
2017-Jul-20 09:00N 50°05' W 125°16'510.8
2017-Jul-20 08:30N 50°00' W 125°12'611.4
2017-Jul-20 08:00N 49°56' W 125°06'611.0
2017-Jul-20 07:30N 49°52' W 125°01'611.3
2017-Jul-20 07:00N 49°48' W 124°54'611.5
2017-Jul-20 06:31N 49°44' W 124°48'611.4
2017-Jul-20 06:00N 49°40' W 124°42'4260.0
2017-Jul-20 06:00N 49°36' W 124°42'4 7.7 330 / 101014.310.8 19.513.420.0
2017-Jul-20 05:29N 49°35' W 124°36'511.2
2017-Jul-20 05:00N 49°31' W 124°31'610.9
2017-Jul-20 04:29N 49°27' W 124°25'510.9
2017-Jul-20 04:00N 49°25' W 124°17'611.0
2017-Jul-20 03:29N 49°24' W 124°09'511.2
2017-Jul-20 03:00N 49°23' W 124°01'611.2
2017-Jul-20 02:30N 49°22' W 123°52'611.5
2017-Jul-20 02:01N 49°21' W 123°43'3170.8
2017-Jul-20 02:00N 49°18' W 123°42'5 9.9 090 / 51017.210.8 19.513.421.0
2017-Jul-20 01:30N 49°19' W 123°35'611.0
2017-Jul-20 01:00N 49°19' W 123°26'511.2
2017-Jul-20 00:31N 49°19' W 123°18'611.2
2017-Jul-20 00:00N 49°19' W 123°09'3 4.9
2017-Jul-19 23:29N 49°17' W 123°06'0 0.0
2017-Jul-19 22:58N 49°17' W 123°06'0 0.0
2017-Jul-19 22:28N 49°17' W 123°06'0 0.0
2017-Jul-19 21:58N 49°17' W 123°06'0 0.0
2017-Jul-19 21:28N 49°17' W 123°06'0 0.0
2017-Jul-19 20:58N 49°17' W 123°06'0 0.0
2017-Jul-19 20:28N 49°17' W 123°06'0 0.0
2017-Jul-19 19:58N 49°17' W 123°06'0 0.0
2017-Jul-19 19:28N 49°17' W 123°06'0 0.0
2017-Jul-19 19:00N 49°17' W 123°06'0 0.0
2017-Jul-19 18:29N 49°17' W 123°06'0 0.0
2017-Jul-19 17:58N 49°17' W 123°06'0 0.0
2017-Jul-19 17:28N 49°17' W 123°06'0 0.0
2017-Jul-19 16:58N 49°17' W 123°06'0 0.0
2017-Jul-19 16:30N 49°17' W 123°06'0 0.0
2017-Jul-19 16:00N 49°17' W 123°06'0 0.0
2017-Jul-19 15:29N 49°17' W 123°06'0 0.0
2017-Jul-19 14:59N 49°17' W 123°06'0 0.0
2017-Jul-19 14:28N 49°17' W 123°06'0 0.0
2017-Jul-19 14:00N 49°17' W 123°06'0 0.7
2017-Jul-19 13:30N 49°18' W 123°06'4 7.8
2017-Jul-19 13:00N 49°19' W 123°12'510.9
2017-Jul-19 12:30N 49°18' W 123°20'5 9.9
2017-Jul-19 12:00N 49°18' W 123°28'5 9.9
2017-Jul-19 11:30N 49°19' W 123°35'510.2
2017-Jul-19 11:00N 49°20' W 123°43'5 9.8
2017-Jul-19 10:29N 49°20' W 123°51'3 6.2
2017-Jul-19 10:00N 49°18' W 123°54'5105.7 130 / 121016.010.8 19.215.521.0
2017-Jul-19 09:57N 49°21' W 123°59'510.0
2017-Jul-19 09:24N 49°22' W 124°07'4 9.2
2017-Jul-19 08:57N 49°24' W 124°13'5 9.6
2017-Jul-19 08:24N 49°25' W 124°21'410.5
2017-Jul-19 08:00N 49°28' W 124°26'510.0
2017-Jul-19 07:29N 49°31' W 124°31'5 9.9
2017-Jul-19 07:00N 49°35' W 124°37'510.1
2017-Jul-19 06:30N 49°39' W 124°42'510.4
2017-Jul-19 06:00N 49°42' W 124°47'3220.1
2017-Jul-19 06:00N 49°42' W 124°42'918.0 060 / 31017.310.8 20.016.721.0
2017-Jul-19 05:30N 49°47' W 124°53'612.3
2017-Jul-19 05:00N 49°51' W 125°00'713.5
2017-Jul-19 04:30N 49°56' W 125°08'714.4
2017-Jul-19 04:01N 50°02' W 125°13'713.6
2017-Jul-19 03:30N 50°07' W 125°20'712.6
2017-Jul-19 02:59N 50°13' W 125°23'613.0
2017-Jul-19 02:30N 50°20' W 125°25'3 6.5
2017-Jul-19 02:00N 50°18' W 125°30'830.5 280 / 191017.610.8 21.011.115.0
2017-Jul-19 01:44N 50°22' W 125°41'314.2
2017-Jul-19 01:30N 50°22' W 125°46'1515.2
2017-Jul-19 00:31N 50°28' W 126°07'116.8
2017-Jul-19 00:29N 50°28' W 126°08'2414.1
2017-Jul-18 22:46N 50°37' W 126°44'517.5
2017-Jul-18 22:30N 50°40' W 126°50'817.3
2017-Jul-18 22:00N 50°43' W 127°02'816.1
2017-Jul-18 21:30N 50°47' W 127°14'715.1
2017-Jul-18 21:00N 50°49' W 127°25'816.7
2017-Jul-18 20:30N 50°53' W 127°36'816.1
2017-Jul-18 20:00N 50°58' W 127°46'611.5
2017-Jul-18 19:29N 51°02' W 127°54'612.3
2017-Jul-18 19:00N 51°05' W 128°02'713.3
2017-Jul-18 18:30N 51°09' W 128°11'815.9
2017-Jul-18 18:00N 51°13' W 128°21'2149.5
2017-Jul-18 18:00N 51°12' W 128°18'1021.4 080 / 21017.4 0.1 12.511.615.0
2017-Jul-18 17:30N 51°18' W 128°32'816.5
2017-Jul-18 17:01N 51°23' W 128°42'816.3
2017-Jul-18 16:30N 51°27' W 128°53'816.4
2017-Jul-18 16:00N 51°32' W 129°04'816.8
2017-Jul-18 15:30N 51°37' W 129°15'816.7
2017-Jul-18 15:00N 51°42' W 129°26'9 8.6
2017-Jul-18 14:00N 51°48' W 129°36'8621.5 350 / 181020.510.8 13.012.115.0
2017-Jul-18 10:00N 53°06' W 130°36'6822.5 330 / 221019.710.8 13.012.115.0
2017-Jul-18 07:00N 54°12' W 131°00'147 7.3 280 / 81021.110.8 13.511.614.0
2017-Jul-17 11:00N 56°18' W 133°12'13834.4 120 / 31024.610.8 10.5 9.514.0
2017-Jul-17 07:00N 58°30' W 134°24'18 0.9 180 / 181023.410.8 11.010.013.0
2017-Jul-16 11:00N 58°12' W 134°30'4711.8 150 / 121013.410.8 12.010.114.0
2017-Jul-16 07:00N 58°54' W 135°12'3 0.2 150 / 251014.410.8 13.010.114.0
2017-Jul-15 11:00N 58°54' W 135°06'4812.0 150 / 111018.210.8 11.010.015.0
2017-Jul-15 07:00N 58°06' W 135°00'914.6 270 / 81020.810.8 12.510.615.0
2017-Jul-15 06:23N 58°09' W 135°16'511.7
2017-Jul-15 06:00N 58°11' W 135°23'610.9
2017-Jul-15 05:29N 58°14' W 135°32'511.1
2017-Jul-15 05:00N 58°17' W 135°41'510.1
2017-Jul-15 04:30N 58°19' W 135°50'5 9.7
2017-Jul-15 04:00N 58°22' W 135°58'5 9.7
2017-Jul-15 03:30N 58°26' W 135°59'510.7
2017-Jul-15 03:00N 58°31' W 136°04'713.0
2017-Jul-15 02:30N 58°38' W 136°06'713.1
2017-Jul-15 02:00N 58°43' W 136°14'9 1.1
2017-Jul-14 17:57N 58°35' W 136°04'715.3
2017-Jul-14 17:30N 58°28' W 136°02'5 9.8
2017-Jul-14 17:00N 58°24' W 135°58'7710.9
2017-Jul-14 10:00N 58°30' W 138°24'4314.4 160 / 61021.210.8 12.010.114.0
2017-Jul-14 07:00N 59°00' W 139°24'4310.7 150 / 151020.910.8 13.011.115.0
2017-Jul-14 03:00N 59°42' W 139°42'0 0.0 230 / 141019.310.8 13.013.013.0
2017-Jul-13 23:00N 59°42' W 139°42'5313.2 150 / 161017.010.8 16.012.815.0
2017-Jul-13 19:00N 59°30' W 141°24'13516.9 120 / 151015.310.8 14.012.215.0
2017-Jul-13 11:00N 59°54' W 145°48'66 1.8 280 / 61021.210.8 14.013.115.0
2017-Jul-11 23:00N 60°42' W 147°18'4511.2 150 / 41011.410.8 12.0 9.013.0
2017-Jul-11 19:00N 60°06' W 146°24'5413.6 260 / 81010.410.8 13.0 9.115.0
2017-Jul-11 15:00N 59°36' W 144°54'12420.7 280 / 121011.210.8 13.0 7.915.0
2017-Jul-11 09:00N 58°54' W 141°06'4723.6 150 / 51012.510.8 12.5 9.615.0
2017-Jul-11 07:00N 58°36' W 139°42'   140 / 71013.410.8 12.0 7.915.0
Track history (hours):
 
Tides and Currents Weather Stations Pressure Air Temp Water Temp Dewpoint Dewpoint Depression Visibility Wind Speed Wind Dir Waves Ship Positions

Island Princess

Operator: Princess Cruises

Last reported at 2017-Jul-20 21:00 UTC. Time now 2017-Jul-21 02:29 UTC.
Position N 51°36' W 129°24'.

Type: Ship. MMSI: 310384000.

Wind from 200 at 6 knots

Barometer 1018.2 mb
Air temperature 15.5 ° C
Visibility: greater than 10.8 NM
Dewpoint 10.8 ° C
Water temperature 17.0 ° C

Date/timePositionNaut miles runAvg speedWind from/ knotsBaromVisibWave heightAir tempDewpointWater temp
2017-Jul-20 21:00N 51°36' W 129°24'544.6 200 / 61018.210.8 15.510.817.0
2017-Jul-20 20:53N 51°39' W 129°19'815.7
2017-Jul-20 20:23N 51°35' W 129°08'715.0
2017-Jul-20 19:56N 51°31' W 128°59'715.8
2017-Jul-20 19:30N 51°27' W 128°51'815.8
2017-Jul-20 19:01N 51°22' W 128°40'816.0
2017-Jul-20 18:30N 51°17' W 128°30'815.7
2017-Jul-20 18:01N 51°13' W 128°20'289.2
2017-Jul-20 18:00N 51°12' W 128°18'612.7 260 / 101018.210.8 15.011.317.0
2017-Jul-20 17:31N 51°09' W 128°10'816.0
2017-Jul-20 17:00N 51°04' W 127°59'714.9
2017-Jul-20 16:30N 51°00' W 127°49'612.7
2017-Jul-20 16:00N 50°56' W 127°42'714.3
2017-Jul-20 15:30N 50°52' W 127°33'713.9
2017-Jul-20 15:00N 50°49' W 127°23'1716.7
2017-Jul-20 14:00N 50°42' W 126°58'2691.2
2017-Jul-20 14:00N 50°42' W 126°54'611.8 250 / 81020.4 2.2 12.511.613.0
2017-Jul-20 13:30N 50°38' W 126°47'815.1
2017-Jul-20 12:58N 50°32' W 126°40'918.6
2017-Jul-20 12:29N 50°30' W 126°26'918.5
2017-Jul-20 12:00N 50°29' W 126°12'2018.6
2017-Jul-20 10:57N 50°22' W 125°43'1017.6
2017-Jul-20 10:21N 50°20' W 125°27'514.2
2017-Jul-20 10:00N 50°16' W 125°24'51845.1
2017-Jul-20 10:00N 50°12' W 125°18'4 9.0 340 / 171014.810.8 13.011.114.0
2017-Jul-20 09:31N 50°08' W 125°21'5 9.3
2017-Jul-20 09:00N 50°05' W 125°16'510.8
2017-Jul-20 08:30N 50°00' W 125°12'611.4
2017-Jul-20 08:00N 49°56' W 125°06'611.0
2017-Jul-20 07:30N 49°52' W 125°01'611.3
2017-Jul-20 07:00N 49°48' W 124°54'611.5
2017-Jul-20 06:31N 49°44' W 124°48'611.4
2017-Jul-20 06:00N 49°40' W 124°42'4260.0
2017-Jul-20 06:00N 49°36' W 124°42'4 7.7 330 / 101014.310.8 19.513.420.0
2017-Jul-20 05:29N 49°35' W 124°36'511.2
2017-Jul-20 05:00N 49°31' W 124°31'610.9
2017-Jul-20 04:29N 49°27' W 124°25'510.9
2017-Jul-20 04:00N 49°25' W 124°17'611.0
2017-Jul-20 03:29N 49°24' W 124°09'511.2
2017-Jul-20 03:00N 49°23' W 124°01'611.2
2017-Jul-20 02:30N 49°22' W 123°52'611.5
2017-Jul-20 02:01N 49°21' W 123°43'3170.8
2017-Jul-20 02:00N 49°18' W 123°42'5 9.9 090 / 51017.210.8 19.513.421.0
2017-Jul-20 01:30N 49°19' W 123°35'611.0
2017-Jul-20 01:00N 49°19' W 123°26'511.2
2017-Jul-20 00:31N 49°19' W 123°18'611.2
2017-Jul-20 00:00N 49°19' W 123°09'3 4.9
2017-Jul-19 23:29N 49°17' W 123°06'0 0.0
2017-Jul-19 22:58N 49°17' W 123°06'0 0.0
2017-Jul-19 22:28N 49°17' W 123°06'0 0.0
2017-Jul-19 21:58N 49°17' W 123°06'0 0.0
2017-Jul-19 21:28N 49°17' W 123°06'0 0.0
2017-Jul-19 20:58N 49°17' W 123°06'0 0.0
2017-Jul-19 20:28N 49°17' W 123°06'0 0.0
2017-Jul-19 19:58N 49°17' W 123°06'0 0.0
2017-Jul-19 19:28N 49°17' W 123°06'0 0.0
2017-Jul-19 19:00N 49°17' W 123°06'0 0.0
2017-Jul-19 18:29N 49°17' W 123°06'0 0.0
2017-Jul-19 17:58N 49°17' W 123°06'0 0.0
2017-Jul-19 17:28N 49°17' W 123°06'0 0.0
2017-Jul-19 16:58N 49°17' W 123°06'0 0.0
2017-Jul-19 16:30N 49°17' W 123°06'0 0.0
2017-Jul-19 16:00N 49°17' W 123°06'0 0.0
2017-Jul-19 15:29N 49°17' W 123°06'0 0.0
2017-Jul-19 14:59N 49°17' W 123°06'0 0.0
2017-Jul-19 14:28N 49°17' W 123°06'0 0.0
2017-Jul-19 14:00N 49°17' W 123°06'0 0.7
2017-Jul-19 13:30N 49°18' W 123°06'4 7.8
2017-Jul-19 13:00N 49°19' W 123°12'510.9
2017-Jul-19 12:30N 49°18' W 123°20'5 9.9
2017-Jul-19 12:00N 49°18' W 123°28'5 9.9
2017-Jul-19 11:30N 49°19' W 123°35'510.2
2017-Jul-19 11:00N 49°20' W 123°43'5 9.8
2017-Jul-19 10:29N 49°20' W 123°51'3 6.2
2017-Jul-19 10:00N 49°18' W 123°54'5105.7 130 / 121016.010.8 19.215.521.0
2017-Jul-19 09:57N 49°21' W 123°59'510.0
2017-Jul-19 09:24N 49°22' W 124°07'4 9.2
2017-Jul-19 08:57N 49°24' W 124°13'5 9.6
2017-Jul-19 08:24N 49°25' W 124°21'410.5
2017-Jul-19 08:00N 49°28' W 124°26'510.0
2017-Jul-19 07:29N 49°31' W 124°31'5 9.9
2017-Jul-19 07:00N 49°35' W 124°37'510.1
2017-Jul-19 06:30N 49°39' W 124°42'510.4
2017-Jul-19 06:00N 49°42' W 124°47'3220.1
2017-Jul-19 06:00N 49°42' W 124°42'918.0 060 / 31017.310.8 20.016.721.0
2017-Jul-19 05:30N 49°47' W 124°53'612.3
2017-Jul-19 05:00N 49°51' W 125°00'713.5
2017-Jul-19 04:30N 49°56' W 125°08'714.4
2017-Jul-19 04:01N 50°02' W 125°13'713.6
2017-Jul-19 03:30N 50°07' W 125°20'712.6
2017-Jul-19 02:59N 50°13' W 125°23'613.0
2017-Jul-19 02:30N 50°20' W 125°25'3 6.5
2017-Jul-19 02:00N 50°18' W 125°30'830.5 280 / 191017.610.8 21.011.115.0
2017-Jul-19 01:44N 50°22' W 125°41'314.2
2017-Jul-19 01:30N 50°22' W 125°46'1515.2
2017-Jul-19 00:31N 50°28' W 126°07'116.8
2017-Jul-19 00:29N 50°28' W 126°08'2414.1
2017-Jul-18 22:46N 50°37' W 126°44'517.5
2017-Jul-18 22:30N 50°40' W 126°50'817.3
2017-Jul-18 22:00N 50°43' W 127°02'816.1
2017-Jul-18 21:30N 50°47' W 127°14'715.1
2017-Jul-18 21:00N 50°49' W 127°25'816.7
2017-Jul-18 20:30N 50°53' W 127°36'816.1
2017-Jul-18 20:00N 50°58' W 127°46'611.5
2017-Jul-18 19:29N 51°02' W 127°54'612.3
2017-Jul-18 19:00N 51°05' W 128°02'713.3
2017-Jul-18 18:30N 51°09' W 128°11'815.9
2017-Jul-18 18:00N 51°13' W 128°21'2149.5
2017-Jul-18 18:00N 51°12' W 128°18'1021.4 080 / 21017.4 0.1 12.511.615.0
2017-Jul-18 17:30N 51°18' W 128°32'816.5
2017-Jul-18 17:01N 51°23' W 128°42'816.3
2017-Jul-18 16:30N 51°27' W 128°53'816.4
2017-Jul-18 16:00N 51°32' W 129°04'816.8
2017-Jul-18 15:30N 51°37' W 129°15'816.7
2017-Jul-18 15:00N 51°42' W 129°26'9 8.6
2017-Jul-18 14:00N 51°48' W 129°36'8621.5 350 / 181020.510.8 13.012.115.0
2017-Jul-18 10:00N 53°06' W 130°36'6822.5 330 / 221019.710.8 13.012.115.0
2017-Jul-18 07:00N 54°12' W 131°00'147 7.3 280 / 81021.110.8 13.511.614.0
2017-Jul-17 11:00N 56°18' W 133°12'13834.4 120 / 31024.610.8 10.5 9.514.0
2017-Jul-17 07:00N 58°30' W 134°24'18 0.9 180 / 181023.410.8 11.010.013.0
2017-Jul-16 11:00N 58°12' W 134°30'4711.8 150 / 121013.410.8 12.010.114.0
2017-Jul-16 07:00N 58°54' W 135°12'3 0.2 150 / 251014.410.8 13.010.114.0
2017-Jul-15 11:00N 58°54' W 135°06'4812.0 150 / 111018.210.8 11.010.015.0
2017-Jul-15 07:00N 58°06' W 135°00'914.6 270 / 81020.810.8 12.510.615.0
2017-Jul-15 06:23N 58°09' W 135°16'511.7
2017-Jul-15 06:00N 58°11' W 135°23'610.9
2017-Jul-15 05:29N 58°14' W 135°32'511.1
2017-Jul-15 05:00N 58°17' W 135°41'510.1
2017-Jul-15 04:30N 58°19' W 135°50'5 9.7
2017-Jul-15 04:00N 58°22' W 135°58'5 9.7
2017-Jul-15 03:30N 58°26' W 135°59'510.7
2017-Jul-15 03:00N 58°31' W 136°04'713.0
2017-Jul-15 02:30N 58°38' W 136°06'713.1
2017-Jul-15 02:00N 58°43' W 136°14'9 1.1
2017-Jul-14 17:57N 58°35' W 136°04'715.3
2017-Jul-14 17:30N 58°28' W 136°02'5 9.8
2017-Jul-14 17:00N 58°24' W 135°58'7710.9
2017-Jul-14 10:00N 58°30' W 138°24'4314.4 160 / 61021.210.8 12.010.114.0
2017-Jul-14 07:00N 59°00' W 139°24'4310.7 150 / 151020.910.8 13.011.115.0
2017-Jul-14 03:00N 59°42' W 139°42'0 0.0 230 / 141019.310.8 13.013.013.0
2017-Jul-13 23:00N 59°42' W 139°42'5313.2 150 / 161017.010.8 16.012.815.0
2017-Jul-13 19:00N 59°30' W 141°24'13516.9 120 / 151015.310.8 14.012.215.0
2017-Jul-13 11:00N 59°54' W 145°48'66 1.8 280 / 61021.210.8 14.013.115.0
2017-Jul-11 23:00N 60°42' W 147°18'4511.2 150 / 41011.410.8 12.0 9.013.0
2017-Jul-11 19:00N 60°06' W 146°24'5413.6 260 / 81010.410.8 13.0 9.115.0
2017-Jul-11 15:00N 59°36' W 144°54'12420.7 280 / 121011.210.8 13.0 7.915.0
2017-Jul-11 09:00N 58°54' W 141°06'4723.6 150 / 51012.510.8 12.5 9.615.0
2017-Jul-11 07:00N 58°36' W 139°42'   140 / 71013.410.8 12.0 7.915.0

Dump ship's entire track history